Aérodrome :
LOGIN :

S'inscrire | Disclaimer

   EN    FR    IT 

 










Légende :    VFR   VFR Marginal   IFR   IFR Intensif   IFR Très Intensif
Visi : 
Plafond : 
>= 8 km
>= 3000ft
5 à 8 km
1000 à 3000 ft
1500m à 5 km
500 à 1000 ft
800 à 1500m
200 à 500 ft
< 800m
< 200 ft
Symboles :   Orages  Brouillard  Fortes neiges  Fortes précipitations  Vent > 20 kt
SIGMETs :   Divers  Orages  Givrage  Turbulence  Onde Orograph.  Cendres Volcan.






- Altitude de l'aérodrome : 821 ft
- Code IATA : LYS


LFLL - Lyon St Exupéry / Satolas

DERNIER METAR :
  • 281230Z 21003KT 130V250 CAVOK 10/M02 Q1020 NOSIG

METARs EXPIRÉS :
  • 281200Z 14003KT 060V190 CAVOK 09/M01 Q1020 NOSIG
  • 281130Z VRB03KT CAVOK 08/M01 Q1021 NOSIG
  • 281100Z 11004KT 070V150 CAVOK 08/M00 Q1021 NOSIG
  • 281030Z VRB03KT CAVOK 07/M00 Q1022 NOSIG
  • 281000Z VRB02KT CAVOK 07/M00 Q1022 NOSIG

TAF TAF LFLL
Valide du 28 à 12h jusqu'au 29 à 18h UTC


281100Z 2812/2918 VRB02KT CAVOK
BECMG 2813/2815 13010KT
BECMG 2900/2902 18020G30KT
TEMPO 2905/2916 18030G45KT
TEMPO 2912/2915 RA
BECMG 2916/2918 22010KT SCT040



MET'MAP, la Météo Aéronautique d'un coup d'oeil ! - Copyright ORBIFLY Décembre 2007 - Disclaimer

ORBIFLY MET'MAP TEAM :

Programmation & Développement : Alexandra Zaïnal
Sur une idée originale de : Baudouin d'Aumeries
Assistance à la programmation : Marc-Olivier Méhu
Soutien technique & logistique : Manuel Goepfert

Contact : metmap@orbifly.com




SOURCES & CREDITS :

   NOAA